sensor_id;sensor_type;location;lat;lon;timestamp;P1;durP1;ratioP1;P2;durP2;ratioP2
13571;SDS011;6857;53.484;10.216;2023-11-19T00:00:49;15.37;;;8.60;;
13571;SDS011;6857;53.484;10.216;2023-11-19T00:03:16;13.50;;;8.73;;
13571;SDS011;6857;53.484;10.216;2023-11-19T00:05:42;13.07;;;8.67;;
13571;SDS011;6857;53.484;10.216;2023-11-19T00:08:09;13.03;;;8.13;;
13571;SDS011;6857;53.484;10.216;2023-11-19T00:10:35;16.70;;;8.40;;
13571;SDS011;6857;53.484;10.216;2023-11-19T00:13:01;12.83;;;7.57;;
13571;SDS011;6857;53.484;10.216;2023-11-19T00:15:27;11.40;;;7.63;;
13571;SDS011;6857;53.484;10.216;2023-11-19T00:17:54;11.50;;;7.80;;
13571;SDS011;6857;53.484;10.216;2023-11-19T00:20:20;11.13;;;7.40;;
13571;SDS011;6857;53.484;10.216;2023-11-19T00:22:47;10.87;;;7.20;;
13571;SDS011;6857;53.484;10.216;2023-11-19T00:25:16;12.23;;;7.83;;
13571;SDS011;6857;53.484;10.216;2023-11-19T00:27:42;13.13;;;7.90;;
13571;SDS011;6857;53.484;10.216;2023-11-19T00:30:09;11.73;;;7.00;;
13571;SDS011;6857;53.484;10.216;2023-11-19T00:32:36;16.60;;;9.63;;
13571;SDS011;6857;53.484;10.216;2023-11-19T00:35:04;9.33;;;6.63;;
13571;SDS011;6857;53.484;10.216;2023-11-19T00:37:31;12.33;;;6.97;;
13571;SDS011;6857;53.484;10.216;2023-11-19T00:39:56;10.00;;;6.87;;
13571;SDS011;6857;53.484;10.216;2023-11-19T00:42:23;10.17;;;6.83;;
13571;SDS011;6857;53.484;10.216;2023-11-19T00:44:52;8.90;;;5.87;;
13571;SDS011;6857;53.484;10.216;2023-11-19T00:47:18;9.00;;;5.70;;
13571;SDS011;6857;53.484;10.216;2023-11-19T00:49:45;10.03;;;5.87;;
13571;SDS011;6857;53.484;10.216;2023-11-19T00:52:13;7.90;;;5.27;;
13571;SDS011;6857;53.484;10.216;2023-11-19T00:54:40;8.57;;;5.77;;
13571;SDS011;6857;53.484;10.216;2023-11-19T00:57:05;8.20;;;5.67;;
13571;SDS011;6857;53.484;10.216;2023-11-19T00:59:31;10.20;;;5.73;;
13571;SDS011;6857;53.484;10.216;2023-11-19T01:01:57;8.97;;;4.97;;
13571;SDS011;6857;53.484;10.216;2023-11-19T01:04:24;7.53;;;4.77;;
13571;SDS011;6857;53.484;10.216;2023-11-19T01:06:49;6.13;;;4.27;;
13571;SDS011;6857;53.484;10.216;2023-11-19T01:09:15;7.60;;;4.63;;
13571;SDS011;6857;53.484;10.216;2023-11-19T01:11:41;7.53;;;5.10;;
13571;SDS011;6857;53.484;10.216;2023-11-19T01:14:06;7.47;;;4.53;;
13571;SDS011;6857;53.484;10.216;2023-11-19T01:16:32;6.83;;;4.43;;
13571;SDS011;6857;53.484;10.216;2023-11-19T01:18:57;7.30;;;5.17;;
13571;SDS011;6857;53.484;10.216;2023-11-19T01:21:23;5.80;;;4.93;;
13571;SDS011;6857;53.484;10.216;2023-11-19T01:23:49;8.53;;;4.87;;
13571;SDS011;6857;53.484;10.216;2023-11-19T01:26:14;8.53;;;4.97;;
13571;SDS011;6857;53.484;10.216;2023-11-19T01:28:40;7.80;;;4.30;;
13571;SDS011;6857;53.484;10.216;2023-11-19T01:31:09;7.17;;;4.57;;
13571;SDS011;6857;53.484;10.216;2023-11-19T01:33:39;6.47;;;4.27;;
13571;SDS011;6857;53.484;10.216;2023-11-19T01:36:06;6.17;;;4.30;;
13571;SDS011;6857;53.484;10.216;2023-11-19T01:38:33;7.37;;;4.40;;
13571;SDS011;6857;53.484;10.216;2023-11-19T01:40:59;5.53;;;3.90;;
13571;SDS011;6857;53.484;10.216;2023-11-19T01:43:32;5.23;;;3.77;;
13571;SDS011;6857;53.484;10.216;2023-11-19T01:45:58;5.47;;;3.40;;
13571;SDS011;6857;53.484;10.216;2023-11-19T01:48:24;5.83;;;3.63;;
13571;SDS011;6857;53.484;10.216;2023-11-19T01:50:50;4.97;;;3.60;;
13571;SDS011;6857;53.484;10.216;2023-11-19T01:53:17;5.43;;;3.70;;
13571;SDS011;6857;53.484;10.216;2023-11-19T01:55:43;4.10;;;3.30;;
13571;SDS011;6857;53.484;10.216;2023-11-19T01:58:11;5.47;;;3.70;;
13571;SDS011;6857;53.484;10.216;2023-11-19T02:00:37;5.10;;;3.53;;
13571;SDS011;6857;53.484;10.216;2023-11-19T02:03:03;4.83;;;3.20;;
13571;SDS011;6857;53.484;10.216;2023-11-19T02:05:32;4.93;;;3.13;;
13571;SDS011;6857;53.484;10.216;2023-11-19T02:07:58;4.97;;;3.57;;
13571;SDS011;6857;53.484;10.216;2023-11-19T02:10:23;3.97;;;2.70;;
13571;SDS011;6857;53.484;10.216;2023-11-19T02:12:50;5.17;;;2.90;;
13571;SDS011;6857;53.484;10.216;2023-11-19T02:15:16;3.73;;;2.73;;
13571;SDS011;6857;53.484;10.216;2023-11-19T02:17:44;3.20;;;2.80;;
13571;SDS011;6857;53.484;10.216;2023-11-19T02:20:09;4.23;;;2.77;;
13571;SDS011;6857;53.484;10.216;2023-11-19T02:22:39;5.57;;;3.30;;
13571;SDS011;6857;53.484;10.216;2023-11-19T02:25:07;4.13;;;2.60;;
13571;SDS011;6857;53.484;10.216;2023-11-19T02:27:44;3.63;;;2.70;;
13571;SDS011;6857;53.484;10.216;2023-11-19T02:30:24;3.93;;;2.70;;
13571;SDS011;6857;53.484;10.216;2023-11-19T02:32:52;3.40;;;2.27;;
13571;SDS011;6857;53.484;10.216;2023-11-19T02:35:19;4.33;;;2.83;;
13571;SDS011;6857;53.484;10.216;2023-11-19T02:37:46;3.80;;;2.80;;
13571;SDS011;6857;53.484;10.216;2023-11-19T02:40:12;4.30;;;2.90;;
13571;SDS011;6857;53.484;10.216;2023-11-19T02:42:38;4.30;;;2.53;;
13571;SDS011;6857;53.484;10.216;2023-11-19T02:45:04;2.97;;;2.53;;
13571;SDS011;6857;53.484;10.216;2023-11-19T02:47:31;3.57;;;2.73;;
13571;SDS011;6857;53.484;10.216;2023-11-19T02:49:57;4.20;;;2.70;;
13571;SDS011;6857;53.484;10.216;2023-11-19T02:52:22;4.00;;;2.80;;
13571;SDS011;6857;53.484;10.216;2023-11-19T02:54:49;3.67;;;2.80;;
13571;SDS011;6857;53.484;10.216;2023-11-19T02:57:15;4.10;;;2.80;;
13571;SDS011;6857;53.484;10.216;2023-11-19T02:59:44;4.17;;;3.00;;
13571;SDS011;6857;53.484;10.216;2023-11-19T03:02:09;4.13;;;2.80;;
13571;SDS011;6857;53.484;10.216;2023-11-19T03:04:40;3.87;;;2.77;;
13571;SDS011;6857;53.484;10.216;2023-11-19T03:07:08;3.80;;;2.60;;
13571;SDS011;6857;53.484;10.216;2023-11-19T03:09:33;4.33;;;2.90;;
13571;SDS011;6857;53.484;10.216;2023-11-19T03:12:05;3.83;;;3.03;;
13571;SDS011;6857;53.484;10.216;2023-11-19T03:14:32;4.33;;;3.27;;
13571;SDS011;6857;53.484;10.216;2023-11-19T03:16:59;4.13;;;3.47;;
13571;SDS011;6857;53.484;10.216;2023-11-19T03:19:25;6.27;;;3.70;;
13571;SDS011;6857;53.484;10.216;2023-11-19T03:21:51;4.63;;;3.30;;
13571;SDS011;6857;53.484;10.216;2023-11-19T03:24:17;5.60;;;3.60;;
13571;SDS011;6857;53.484;10.216;2023-11-19T03:26:42;4.87;;;3.17;;
13571;SDS011;6857;53.484;10.216;2023-11-19T03:29:12;5.17;;;3.47;;
13571;SDS011;6857;53.484;10.216;2023-11-19T03:31:41;5.17;;;3.60;;
13571;SDS011;6857;53.484;10.216;2023-11-19T03:34:07;5.70;;;3.57;;
13571;SDS011;6857;53.484;10.216;2023-11-19T03:36:33;5.93;;;3.83;;
13571;SDS011;6857;53.484;10.216;2023-11-19T03:38:59;6.27;;;3.83;;
13571;SDS011;6857;53.484;10.216;2023-11-19T03:41:24;5.53;;;4.40;;
13571;SDS011;6857;53.484;10.216;2023-11-19T03:43:50;7.70;;;4.47;;
13571;SDS011;6857;53.484;10.216;2023-11-19T03:46:16;6.30;;;3.97;;
13571;SDS011;6857;53.484;10.216;2023-11-19T03:48:49;5.13;;;3.40;;
13571;SDS011;6857;53.484;10.216;2023-11-19T03:51:15;5.67;;;3.90;;
13571;SDS011;6857;53.484;10.216;2023-11-19T03:53:44;4.73;;;3.73;;
13571;SDS011;6857;53.484;10.216;2023-11-19T03:56:10;5.53;;;3.97;;
13571;SDS011;6857;53.484;10.216;2023-11-19T03:58:36;5.17;;;4.00;;
13571;SDS011;6857;53.484;10.216;2023-11-19T04:01:03;5.17;;;3.77;;
13571;SDS011;6857;53.484;10.216;2023-11-19T04:03:29;6.67;;;4.20;;
13571;SDS011;6857;53.484;10.216;2023-11-19T04:05:55;5.03;;;3.80;;
13571;SDS011;6857;53.484;10.216;2023-11-19T04:08:21;5.93;;;4.23;;
13571;SDS011;6857;53.484;10.216;2023-11-19T04:10:47;6.47;;;4.60;;
13571;SDS011;6857;53.484;10.216;2023-11-19T04:13:13;6.60;;;4.33;;
13571;SDS011;6857;53.484;10.216;2023-11-19T04:15:38;5.57;;;4.00;;
13571;SDS011;6857;53.484;10.216;2023-11-19T04:18:04;6.77;;;4.50;;
13571;SDS011;6857;53.484;10.216;2023-11-19T04:20:29;5.53;;;4.07;;
13571;SDS011;6857;53.484;10.216;2023-11-19T04:22:56;5.80;;;4.70;;
13571;SDS011;6857;53.484;10.216;2023-11-19T04:25:22;8.07;;;4.97;;
13571;SDS011;6857;53.484;10.216;2023-11-19T04:27:47;4.97;;;3.83;;
13571;SDS011;6857;53.484;10.216;2023-11-19T04:30:14;7.27;;;4.53;;
13571;SDS011;6857;53.484;10.216;2023-11-19T04:32:40;5.53;;;4.10;;
13571;SDS011;6857;53.484;10.216;2023-11-19T04:35:06;4.87;;;3.90;;
13571;SDS011;6857;53.484;10.216;2023-11-19T04:37:32;5.77;;;4.37;;
13571;SDS011;6857;53.484;10.216;2023-11-19T04:39:57;7.63;;;4.30;;
13571;SDS011;6857;53.484;10.216;2023-11-19T04:42:24;7.43;;;4.07;;
13571;SDS011;6857;53.484;10.216;2023-11-19T04:44:50;6.20;;;4.17;;
13571;SDS011;6857;53.484;10.216;2023-11-19T04:47:15;5.73;;;4.30;;
13571;SDS011;6857;53.484;10.216;2023-11-19T04:49:41;8.40;;;4.07;;
13571;SDS011;6857;53.484;10.216;2023-11-19T04:52:09;7.67;;;4.13;;
13571;SDS011;6857;53.484;10.216;2023-11-19T04:54:40;5.87;;;4.13;;
13571;SDS011;6857;53.484;10.216;2023-11-19T04:57:09;6.77;;;3.93;;
13571;SDS011;6857;53.484;10.216;2023-11-19T04:59:36;5.87;;;4.00;;
13571;SDS011;6857;53.484;10.216;2023-11-19T05:02:01;4.83;;;4.00;;
13571;SDS011;6857;53.484;10.216;2023-11-19T05:04:27;5.83;;;4.17;;
13571;SDS011;6857;53.484;10.216;2023-11-19T05:06:52;5.30;;;4.30;;
13571;SDS011;6857;53.484;10.216;2023-11-19T05:09:18;5.40;;;4.27;;
13571;SDS011;6857;53.484;10.216;2023-11-19T05:11:43;6.33;;;4.30;;
13571;SDS011;6857;53.484;10.216;2023-11-19T05:14:09;6.40;;;4.60;;
13571;SDS011;6857;53.484;10.216;2023-11-19T05:16:34;7.37;;;4.47;;
13571;SDS011;6857;53.484;10.216;2023-11-19T05:19:00;7.00;;;4.80;;
13571;SDS011;6857;53.484;10.216;2023-11-19T05:21:25;6.03;;;4.90;;
13571;SDS011;6857;53.484;10.216;2023-11-19T05:23:51;8.03;;;5.03;;
13571;SDS011;6857;53.484;10.216;2023-11-19T05:26:17;7.77;;;5.00;;
13571;SDS011;6857;53.484;10.216;2023-11-19T05:28:44;9.43;;;5.20;;
13571;SDS011;6857;53.484;10.216;2023-11-19T05:31:10;8.77;;;5.37;;
13571;SDS011;6857;53.484;10.216;2023-11-19T05:33:35;14.40;;;6.20;;
13571;SDS011;6857;53.484;10.216;2023-11-19T05:36:01;9.93;;;6.23;;
13571;SDS011;6857;53.484;10.216;2023-11-19T05:38:28;10.27;;;6.23;;
13571;SDS011;6857;53.484;10.216;2023-11-19T05:40:54;12.57;;;6.13;;
13571;SDS011;6857;53.484;10.216;2023-11-19T05:43:20;9.17;;;6.00;;
13571;SDS011;6857;53.484;10.216;2023-11-19T05:45:46;11.57;;;6.30;;
13571;SDS011;6857;53.484;10.216;2023-11-19T05:48:11;12.73;;;6.70;;
13571;SDS011;6857;53.484;10.216;2023-11-19T05:50:37;8.97;;;6.53;;
13571;SDS011;6857;53.484;10.216;2023-11-19T05:53:03;11.87;;;7.23;;
13571;SDS011;6857;53.484;10.216;2023-11-19T05:55:35;13.10;;;6.97;;
13571;SDS011;6857;53.484;10.216;2023-11-19T05:58:02;11.23;;;7.27;;
13571;SDS011;6857;53.484;10.216;2023-11-19T06:00:29;10.30;;;7.20;;
13571;SDS011;6857;53.484;10.216;2023-11-19T06:02:55;13.03;;;7.90;;
13571;SDS011;6857;53.484;10.216;2023-11-19T06:05:21;11.63;;;6.93;;
13571;SDS011;6857;53.484;10.216;2023-11-19T06:07:46;11.57;;;7.30;;
13571;SDS011;6857;53.484;10.216;2023-11-19T06:10:12;12.60;;;7.40;;
13571;SDS011;6857;53.484;10.216;2023-11-19T06:12:41;12.97;;;7.33;;
13571;SDS011;6857;53.484;10.216;2023-11-19T06:15:07;11.90;;;7.67;;
13571;SDS011;6857;53.484;10.216;2023-11-19T06:17:36;16.60;;;8.40;;
13571;SDS011;6857;53.484;10.216;2023-11-19T06:20:01;13.27;;;8.43;;
13571;SDS011;6857;53.484;10.216;2023-11-19T06:22:29;15.53;;;8.87;;
13571;SDS011;6857;53.484;10.216;2023-11-19T06:24:56;15.80;;;9.03;;
13571;SDS011;6857;53.484;10.216;2023-11-19T06:27:21;18.40;;;10.10;;
13571;SDS011;6857;53.484;10.216;2023-11-19T06:29:47;24.90;;;12.10;;
13571;SDS011;6857;53.484;10.216;2023-11-19T06:32:13;21.80;;;11.47;;
13571;SDS011;6857;53.484;10.216;2023-11-19T06:34:38;27.13;;;13.17;;
13571;SDS011;6857;53.484;10.216;2023-11-19T06:37:04;26.67;;;12.30;;
13571;SDS011;6857;53.484;10.216;2023-11-19T06:39:29;26.70;;;12.77;;
13571;SDS011;6857;53.484;10.216;2023-11-19T06:41:55;23.87;;;12.87;;
13571;SDS011;6857;53.484;10.216;2023-11-19T06:44:21;24.70;;;12.17;;
13571;SDS011;6857;53.484;10.216;2023-11-19T06:46:48;29.13;;;13.57;;
13571;SDS011;6857;53.484;10.216;2023-11-19T06:49:13;27.30;;;13.17;;
13571;SDS011;6857;53.484;10.216;2023-11-19T06:51:42;25.87;;;13.13;;
13571;SDS011;6857;53.484;10.216;2023-11-19T06:54:09;32.47;;;13.30;;
13571;SDS011;6857;53.484;10.216;2023-11-19T06:56:34;29.03;;;12.40;;
13571;SDS011;6857;53.484;10.216;2023-11-19T06:59:00;38.37;;;14.43;;
13571;SDS011;6857;53.484;10.216;2023-11-19T07:01:25;34.50;;;12.53;;
13571;SDS011;6857;53.484;10.216;2023-11-19T07:03:51;37.37;;;12.63;;
13571;SDS011;6857;53.484;10.216;2023-11-19T07:06:16;37.67;;;13.57;;
13571;SDS011;6857;53.484;10.216;2023-11-19T07:08:42;28.83;;;11.90;;
13571;SDS011;6857;53.484;10.216;2023-11-19T07:11:09;32.07;;;11.80;;
13571;SDS011;6857;53.484;10.216;2023-11-19T07:13:36;27.47;;;11.57;;
13571;SDS011;6857;53.484;10.216;2023-11-19T07:16:03;29.77;;;10.50;;
13571;SDS011;6857;53.484;10.216;2023-11-19T07:18:29;28.57;;;10.27;;
13571;SDS011;6857;53.484;10.216;2023-11-19T07:20:54;28.07;;;10.77;;
13571;SDS011;6857;53.484;10.216;2023-11-19T07:23:20;26.37;;;10.40;;
13571;SDS011;6857;53.484;10.216;2023-11-19T07:25:46;29.73;;;10.20;;
13571;SDS011;6857;53.484;10.216;2023-11-19T07:28:12;27.10;;;10.57;;
13571;SDS011;6857;53.484;10.216;2023-11-19T07:30:38;31.87;;;9.83;;
13571;SDS011;6857;53.484;10.216;2023-11-19T07:33:04;24.43;;;9.23;;
13571;SDS011;6857;53.484;10.216;2023-11-19T07:35:29;21.83;;;7.67;;
13571;SDS011;6857;53.484;10.216;2023-11-19T07:37:56;18.20;;;6.53;;
13571;SDS011;6857;53.484;10.216;2023-11-19T07:40:22;20.37;;;6.07;;
13571;SDS011;6857;53.484;10.216;2023-11-19T07:42:48;21.23;;;6.97;;
13571;SDS011;6857;53.484;10.216;2023-11-19T07:45:14;15.83;;;6.40;;
13571;SDS011;6857;53.484;10.216;2023-11-19T07:47:40;25.60;;;7.53;;
13571;SDS011;6857;53.484;10.216;2023-11-19T07:50:06;22.73;;;7.30;;
13571;SDS011;6857;53.484;10.216;2023-11-19T07:52:32;23.40;;;7.10;;
13571;SDS011;6857;53.484;10.216;2023-11-19T07:54:58;15.30;;;7.17;;
13571;SDS011;6857;53.484;10.216;2023-11-19T07:57:23;25.13;;;8.23;;
13571;SDS011;6857;53.484;10.216;2023-11-19T07:59:49;29.70;;;7.97;;
13571;SDS011;6857;53.484;10.216;2023-11-19T08:02:15;24.87;;;7.90;;
13571;SDS011;6857;53.484;10.216;2023-11-19T08:04:40;28.10;;;8.03;;
13571;SDS011;6857;53.484;10.216;2023-11-19T08:07:10;23.77;;;7.13;;
13571;SDS011;6857;53.484;10.216;2023-11-19T08:09:36;23.57;;;6.40;;
13571;SDS011;6857;53.484;10.216;2023-11-19T08:12:02;24.80;;;6.37;;
13571;SDS011;6857;53.484;10.216;2023-11-19T08:14:28;24.23;;;7.20;;
13571;SDS011;6857;53.484;10.216;2023-11-19T08:16:54;28.00;;;6.10;;
13571;SDS011;6857;53.484;10.216;2023-11-19T08:19:19;27.43;;;6.87;;
13571;SDS011;6857;53.484;10.216;2023-11-19T08:21:45;26.27;;;6.73;;
13571;SDS011;6857;53.484;10.216;2023-11-19T08:24:11;28.97;;;6.37;;
13571;SDS011;6857;53.484;10.216;2023-11-19T08:26:36;30.47;;;6.57;;
13571;SDS011;6857;53.484;10.216;2023-11-19T08:29:02;23.37;;;6.13;;
13571;SDS011;6857;53.484;10.216;2023-11-19T08:31:28;27.37;;;6.40;;
13571;SDS011;6857;53.484;10.216;2023-11-19T08:33:54;30.27;;;6.50;;
13571;SDS011;6857;53.484;10.216;2023-11-19T08:36:20;28.37;;;6.00;;
13571;SDS011;6857;53.484;10.216;2023-11-19T08:38:45;22.53;;;5.27;;
13571;SDS011;6857;53.484;10.216;2023-11-19T08:41:11;24.77;;;6.07;;
13571;SDS011;6857;53.484;10.216;2023-11-19T08:43:37;27.17;;;5.60;;
13571;SDS011;6857;53.484;10.216;2023-11-19T08:46:04;26.70;;;6.13;;
13571;SDS011;6857;53.484;10.216;2023-11-19T08:48:35;30.30;;;6.27;;
13571;SDS011;6857;53.484;10.216;2023-11-19T08:51:01;23.47;;;5.43;;
13571;SDS011;6857;53.484;10.216;2023-11-19T08:53:26;22.83;;;5.07;;
13571;SDS011;6857;53.484;10.216;2023-11-19T08:55:52;22.70;;;5.67;;
13571;SDS011;6857;53.484;10.216;2023-11-19T08:58:17;22.10;;;5.50;;
13571;SDS011;6857;53.484;10.216;2023-11-19T09:00:43;24.03;;;5.47;;
13571;SDS011;6857;53.484;10.216;2023-11-19T09:03:09;22.37;;;4.87;;
13571;SDS011;6857;53.484;10.216;2023-11-19T09:05:34;24.67;;;5.10;;
13571;SDS011;6857;53.484;10.216;2023-11-19T09:08:00;20.57;;;4.60;;
13571;SDS011;6857;53.484;10.216;2023-11-19T09:10:25;23.53;;;5.03;;
13571;SDS011;6857;53.484;10.216;2023-11-19T09:12:52;24.37;;;5.27;;
13571;SDS011;6857;53.484;10.216;2023-11-19T09:15:17;26.63;;;5.40;;
13571;SDS011;6857;53.484;10.216;2023-11-19T09:17:45;24.20;;;5.10;;
13571;SDS011;6857;53.484;10.216;2023-11-19T09:20:11;21.07;;;5.27;;
13571;SDS011;6857;53.484;10.216;2023-11-19T09:22:37;24.37;;;5.43;;
13571;SDS011;6857;53.484;10.216;2023-11-19T09:25:03;23.53;;;5.00;;
13571;SDS011;6857;53.484;10.216;2023-11-19T09:27:30;28.13;;;5.20;;
13571;SDS011;6857;53.484;10.216;2023-11-19T09:29:55;23.87;;;5.20;;
13571;SDS011;6857;53.484;10.216;2023-11-19T09:32:23;30.20;;;5.97;;
13571;SDS011;6857;53.484;10.216;2023-11-19T09:34:48;29.07;;;5.40;;
13571;SDS011;6857;53.484;10.216;2023-11-19T09:37:14;29.70;;;6.10;;
13571;SDS011;6857;53.484;10.216;2023-11-19T09:39:40;23.37;;;5.37;;
13571;SDS011;6857;53.484;10.216;2023-11-19T09:42:08;23.40;;;5.70;;
13571;SDS011;6857;53.484;10.216;2023-11-19T09:44:37;28.53;;;5.13;;
13571;SDS011;6857;53.484;10.216;2023-11-19T09:47:04;23.67;;;5.30;;
13571;SDS011;6857;53.484;10.216;2023-11-19T09:49:31;24.40;;;5.40;;
13571;SDS011;6857;53.484;10.216;2023-11-19T09:51:58;28.07;;;5.60;;
13571;SDS011;6857;53.484;10.216;2023-11-19T09:54:23;21.70;;;5.40;;
13571;SDS011;6857;53.484;10.216;2023-11-19T09:56:49;21.87;;;5.60;;
13571;SDS011;6857;53.484;10.216;2023-11-19T09:59:15;25.67;;;5.93;;
13571;SDS011;6857;53.484;10.216;2023-11-19T10:01:42;20.10;;;5.33;;
13571;SDS011;6857;53.484;10.216;2023-11-19T10:04:09;28.97;;;6.17;;
13571;SDS011;6857;53.484;10.216;2023-11-19T10:06:36;32.30;;;5.50;;
13571;SDS011;6857;53.484;10.216;2023-11-19T10:09:02;27.80;;;4.90;;
13571;SDS011;6857;53.484;10.216;2023-11-19T10:11:29;25.70;;;6.13;;
13571;SDS011;6857;53.484;10.216;2023-11-19T10:13:55;20.70;;;6.13;;
13571;SDS011;6857;53.484;10.216;2023-11-19T10:16:21;24.10;;;5.33;;
13571;SDS011;6857;53.484;10.216;2023-11-19T10:18:54;29.87;;;5.20;;
13571;SDS011;6857;53.484;10.216;2023-11-19T10:21:20;26.03;;;5.30;;
13571;SDS011;6857;53.484;10.216;2023-11-19T10:23:47;24.77;;;6.07;;
13571;SDS011;6857;53.484;10.216;2023-11-19T10:26:22;28.67;;;6.27;;
13571;SDS011;6857;53.484;10.216;2023-11-19T10:28:48;26.73;;;5.13;;
13571;SDS011;6857;53.484;10.216;2023-11-19T10:31:14;24.30;;;5.30;;
13571;SDS011;6857;53.484;10.216;2023-11-19T10:33:41;30.03;;;5.60;;
13571;SDS011;6857;53.484;10.216;2023-11-19T10:36:07;22.27;;;5.17;;
13571;SDS011;6857;53.484;10.216;2023-11-19T10:38:33;26.70;;;5.27;;
13571;SDS011;6857;53.484;10.216;2023-11-19T10:40:58;31.30;;;5.63;;
13571;SDS011;6857;53.484;10.216;2023-11-19T10:43:24;24.33;;;5.07;;
13571;SDS011;6857;53.484;10.216;2023-11-19T10:45:53;25.63;;;5.20;;
13571;SDS011;6857;53.484;10.216;2023-11-19T10:48:18;24.07;;;5.10;;
13571;SDS011;6857;53.484;10.216;2023-11-19T10:50:53;29.03;;;5.80;;
13571;SDS011;6857;53.484;10.216;2023-11-19T10:53:21;26.03;;;5.53;;
13571;SDS011;6857;53.484;10.216;2023-11-19T10:55:51;23.13;;;5.57;;
13571;SDS011;6857;53.484;10.216;2023-11-19T10:58:18;24.03;;;4.90;;
13571;SDS011;6857;53.484;10.216;2023-11-19T11:00:45;22.03;;;5.03;;
13571;SDS011;6857;53.484;10.216;2023-11-19T11:03:17;22.40;;;5.23;;
13571;SDS011;6857;53.484;10.216;2023-11-19T11:05:45;26.33;;;7.07;;
13571;SDS011;6857;53.484;10.216;2023-11-19T11:08:12;24.10;;;4.70;;
13571;SDS011;6857;53.484;10.216;2023-11-19T11:10:39;29.27;;;5.47;;
13571;SDS011;6857;53.484;10.216;2023-11-19T11:13:10;18.83;;;4.23;;
13571;SDS011;6857;53.484;10.216;2023-11-19T11:15:38;22.23;;;4.67;;
13571;SDS011;6857;53.484;10.216;2023-11-19T11:18:08;26.47;;;5.47;;
13571;SDS011;6857;53.484;10.216;2023-11-19T11:20:54;30.50;;;5.47;;
13571;SDS011;6857;53.484;10.216;2023-11-19T11:29:14;18.03;;;4.33;;
13571;SDS011;6857;53.484;10.216;2023-11-19T11:32:05;27.23;;;6.07;;
13571;SDS011;6857;53.484;10.216;2023-11-19T11:38:00;20.40;;;5.63;;
13571;SDS011;6857;53.484;10.216;2023-11-19T11:40:29;25.83;;;5.17;;
13571;SDS011;6857;53.484;10.216;2023-11-19T11:42:54;26.07;;;6.00;;
13571;SDS011;6857;53.484;10.216;2023-11-19T11:45:20;26.00;;;5.40;;
13571;SDS011;6857;53.484;10.216;2023-11-19T11:50:34;35.43;;;6.80;;
13571;SDS011;6857;53.484;10.216;2023-11-19T11:58:34;30.83;;;5.47;;
13571;SDS011;6857;53.484;10.216;2023-11-19T12:01:07;31.00;;;5.77;;
13571;SDS011;6857;53.484;10.216;2023-11-19T12:03:33;27.80;;;5.37;;
13571;SDS011;6857;53.484;10.216;2023-11-19T12:05:58;29.53;;;6.50;;
13571;SDS011;6857;53.484;10.216;2023-11-19T12:08:25;33.07;;;6.10;;
13571;SDS011;6857;53.484;10.216;2023-11-19T12:10:53;35.97;;;5.93;;
13571;SDS011;6857;53.484;10.216;2023-11-19T12:13:23;25.80;;;5.60;;
13571;SDS011;6857;53.484;10.216;2023-11-19T12:16:06;28.53;;;5.60;;
13571;SDS011;6857;53.484;10.216;2023-11-19T12:18:32;32.77;;;6.43;;
13571;SDS011;6857;53.484;10.216;2023-11-19T12:20:59;27.80;;;5.70;;
13571;SDS011;6857;53.484;10.216;2023-11-19T12:23:26;25.73;;;4.80;;
13571;SDS011;6857;53.484;10.216;2023-11-19T12:25:53;25.43;;;6.07;;
13571;SDS011;6857;53.484;10.216;2023-11-19T12:28:20;29.57;;;6.17;;
13571;SDS011;6857;53.484;10.216;2023-11-19T12:30:45;23.87;;;5.00;;
13571;SDS011;6857;53.484;10.216;2023-11-19T12:33:12;20.10;;;5.30;;
13571;SDS011;6857;53.484;10.216;2023-11-19T12:35:38;19.83;;;4.53;;
13571;SDS011;6857;53.484;10.216;2023-11-19T12:38:04;21.33;;;4.77;;
13571;SDS011;6857;53.484;10.216;2023-11-19T12:40:30;30.70;;;5.00;;
13571;SDS011;6857;53.484;10.216;2023-11-19T12:42:56;27.33;;;6.10;;
13571;SDS011;6857;53.484;10.216;2023-11-19T12:45:22;29.50;;;7.13;;
13571;SDS011;6857;53.484;10.216;2023-11-19T12:47:48;26.80;;;5.13;;
13571;SDS011;6857;53.484;10.216;2023-11-19T12:50:17;22.93;;;5.00;;
13571;SDS011;6857;53.484;10.216;2023-11-19T12:52:54;25.20;;;5.43;;
13571;SDS011;6857;53.484;10.216;2023-11-19T12:55:32;21.40;;;4.57;;
13571;SDS011;6857;53.484;10.216;2023-11-19T12:57:57;30.13;;;5.33;;
13571;SDS011;6857;53.484;10.216;2023-11-19T13:00:24;21.53;;;4.73;;
13571;SDS011;6857;53.484;10.216;2023-11-19T13:02:52;27.13;;;5.87;;
13571;SDS011;6857;53.484;10.216;2023-11-19T13:05:28;22.07;;;5.27;;
13571;SDS011;6857;53.484;10.216;2023-11-19T13:08:01;23.33;;;4.80;;
13571;SDS011;6857;53.484;10.216;2023-11-19T13:10:27;26.50;;;5.73;;
13571;SDS011;6857;53.484;10.216;2023-11-19T13:13:05;17.60;;;3.90;;
13571;SDS011;6857;53.484;10.216;2023-11-19T13:15:33;23.10;;;4.87;;
13571;SDS011;6857;53.484;10.216;2023-11-19T13:17:59;20.40;;;4.43;;
13571;SDS011;6857;53.484;10.216;2023-11-19T13:20:26;19.97;;;4.40;;
13571;SDS011;6857;53.484;10.216;2023-11-19T13:22:56;22.33;;;4.03;;
13571;SDS011;6857;53.484;10.216;2023-11-19T13:25:26;21.73;;;4.70;;
13571;SDS011;6857;53.484;10.216;2023-11-19T13:27:52;25.07;;;4.97;;
13571;SDS011;6857;53.484;10.216;2023-11-19T13:30:18;21.37;;;5.47;;
13571;SDS011;6857;53.484;10.216;2023-11-19T13:32:44;23.20;;;4.20;;
13571;SDS011;6857;53.484;10.216;2023-11-19T13:35:11;20.03;;;4.47;;
13571;SDS011;6857;53.484;10.216;2023-11-19T13:37:37;24.00;;;5.00;;
13571;SDS011;6857;53.484;10.216;2023-11-19T13:40:04;20.50;;;4.87;;
13571;SDS011;6857;53.484;10.216;2023-11-19T13:42:30;24.67;;;7.07;;
13571;SDS011;6857;53.484;10.216;2023-11-19T13:44:55;25.67;;;5.07;;
13571;SDS011;6857;53.484;10.216;2023-11-19T13:47:21;20.87;;;4.63;;
13571;SDS011;6857;53.484;10.216;2023-11-19T13:49:47;17.80;;;4.17;;
13571;SDS011;6857;53.484;10.216;2023-11-19T13:52:12;26.13;;;4.70;;
13571;SDS011;6857;53.484;10.216;2023-11-19T13:54:38;20.67;;;4.23;;
13571;SDS011;6857;53.484;10.216;2023-11-19T13:57:04;23.23;;;4.53;;
13571;SDS011;6857;53.484;10.216;2023-11-19T13:59:30;19.40;;;4.67;;
13571;SDS011;6857;53.484;10.216;2023-11-19T14:01:57;23.17;;;4.83;;
13571;SDS011;6857;53.484;10.216;2023-11-19T14:04:23;29.80;;;5.73;;
13571;SDS011;6857;53.484;10.216;2023-11-19T14:06:49;23.80;;;4.40;;
13571;SDS011;6857;53.484;10.216;2023-11-19T14:09:14;28.20;;;5.03;;
13571;SDS011;6857;53.484;10.216;2023-11-19T14:11:40;25.27;;;4.93;;
13571;SDS011;6857;53.484;10.216;2023-11-19T14:14:07;22.53;;;5.37;;
13571;SDS011;6857;53.484;10.216;2023-11-19T14:16:33;25.87;;;5.60;;
13571;SDS011;6857;53.484;10.216;2023-11-19T14:18:59;24.17;;;5.33;;
13571;SDS011;6857;53.484;10.216;2023-11-19T14:21:25;20.47;;;4.70;;
13571;SDS011;6857;53.484;10.216;2023-11-19T14:23:51;22.03;;;4.97;;
13571;SDS011;6857;53.484;10.216;2023-11-19T14:26:17;22.53;;;4.70;;
13571;SDS011;6857;53.484;10.216;2023-11-19T14:28:43;18.73;;;4.50;;
13571;SDS011;6857;53.484;10.216;2023-11-19T14:31:08;18.03;;;4.43;;
13571;SDS011;6857;53.484;10.216;2023-11-19T14:33:34;19.40;;;4.50;;
13571;SDS011;6857;53.484;10.216;2023-11-19T14:36:00;25.47;;;5.07;;
13571;SDS011;6857;53.484;10.216;2023-11-19T14:38:26;18.07;;;4.83;;
13571;SDS011;6857;53.484;10.216;2023-11-19T14:40:52;19.57;;;5.83;;
13571;SDS011;6857;53.484;10.216;2023-11-19T14:43:18;22.57;;;5.03;;
13571;SDS011;6857;53.484;10.216;2023-11-19T14:45:43;21.93;;;6.17;;
13571;SDS011;6857;53.484;10.216;2023-11-19T14:48:09;25.80;;;5.77;;
13571;SDS011;6857;53.484;10.216;2023-11-19T14:50:35;23.83;;;5.90;;
13571;SDS011;6857;53.484;10.216;2023-11-19T14:53:00;25.30;;;5.53;;